Time;durP1;ratioP1;P1;durP2;ratioP2;P2;SDS_P1;SDS_P2;PMS_P1;PMS_P2;Temp;Humidity;BMP_temperature;BMP_pressure;BME280_temperature;BME280_humidity;BME280_pressure;Samples;Min_cycle;Max_cycle;Signal;HPM_P1;HPM_P2
2022/04/01 00:00:08;;;;;;;;;;;;;;;0.25;100.00;100335.84;5054418;28;19939;-35
2022/04/01 00:02:33;;;;;;;;;;;;;;;0.23;100.00;100337.81;5054819;28;20440;-35
2022/04/01 00:04:59;;;;;;;;;;;;;;;0.11;100.00;100341.09;5054090;28;19920;-35
2022/04/01 00:07:24;;;;;;;;;;;;;;;0.05;100.00;100339.97;5054115;28;20349;-35
2022/04/01 00:09:49;;;;;;;;;;;;;;;-0.01;100.00;100345.94;5053849;28;20369;-35
2022/04/01 00:12:14;;;;;;;;;;;;;;;0.01;100.00;100343.13;5054392;28;19924;-35
2022/04/01 00:14:39;;;;;;;;;;;;;;;0.03;100.00;100355.22;5054382;28;19913;-35
2022/04/01 00:17:05;;;;;;;;;;;;;;;0.02;100.00;100361.56;5054445;28;19913;-35
2022/04/01 00:19:30;;;;;;;;;;;;;;;-0.01;100.00;100364.56;5054172;28;19917;-35
2022/04/01 00:21:56;;;;;;;;;;;;;;;0.01;100.00;100367.88;5054069;28;19974;-35
2022/04/01 00:24:22;;;;;;;;;;;;;;;-0.10;100.00;100363.78;5054453;28;20378;-35
2022/04/01 00:26:47;;;;;;;;;;;;;;;-0.04;100.00;100367.59;5054049;28;20420;-35
2022/04/01 00:29:16;;;;;;;;;;;;;;;-0.15;100.00;100360.78;5053735;28;19971;-35
2022/04/01 00:31:44;;;;;;;;;;;;;;;-0.13;100.00;100369.44;5053682;28;19912;-35
2022/04/01 00:34:15;;;;;;;;;;;;;;;-0.08;100.00;100368.94;5053312;28;19928;-35
2022/04/01 00:36:45;;;;;;;;;;;;;;;-0.09;100.00;100369.94;5053165;28;19913;-35
2022/04/01 00:39:10;;;;;;;;;;;;;;;-0.03;100.00;100363.91;5053542;28;19918;-33
2022/04/01 00:41:36;;;;;;;;;;;;;;;-0.12;100.00;100362.28;5053726;28;20066;-35
2022/04/01 00:44:15;;;;;;;;;;;;;;;-0.09;100.00;100360.13;5053703;28;19912;-34
2022/04/01 00:46:43;;;;;;;;;;;;;;;-0.06;100.00;100359.75;5053661;28;19925;-35
2022/04/01 00:49:09;;;;;;;;;;;;;;;-0.01;100.00;100361.91;5053090;28;19916;-34
2022/04/01 00:51:34;;;;;;;;;;;;;;;-0.07;100.00;100365.25;5053719;28;19920;-35
2022/04/01 00:54:00;;;;;;;;;;;;;;;-0.10;100.00;100363.78;5053066;28;19913;-35
2022/04/01 00:56:30;;;;;;;;;;;;;;;-0.15;100.00;100365.28;5053481;28;20431;-34
2022/04/01 00:58:55;;;;;;;;;;;;;;;-0.20;100.00;100375.59;5053911;28;19913;-34
2022/04/01 01:01:21;;;;;;;;;;;;;;;-0.15;100.00;100379.41;5053459;28;20407;-34
2022/04/01 01:03:46;;;;;;;;;;;;;;;-0.21;100.00;100373.97;5053337;28;19920;-34
2022/04/01 01:06:11;;;;;;;;;;;;;;;-0.21;100.00;100380.09;5053707;28;19913;-35
2022/04/01 01:08:37;;;;;;;;;;;;;;;-0.18;100.00;100386.91;5053520;28;19912;-35
2022/04/01 01:11:02;;;;;;;;;;;;;;;-0.18;100.00;100381.59;5053114;28;19963;-34
2022/04/01 01:13:29;;;;;;;;;;;;;;;-0.23;100.00;100381.28;5052919;28;20007;-34
2022/04/01 01:15:55;;;;;;;;;;;;;;;-0.15;100.00;100384.72;5053468;28;20372;-34
2022/04/01 01:18:21;;;;;;;;;;;;;;;-0.18;100.00;100385.06;5052879;28;19912;-34
2022/04/01 01:20:47;;;;;;;;;;;;;;;-0.28;100.00;100387.94;5053249;28;19937;-34
2022/04/01 01:23:12;;;;;;;;;;;;;;;-0.15;100.00;100386.53;5052847;28;19912;-34
2022/04/01 01:25:38;;;;;;;;;;;;;;;-0.14;100.00;100389.06;5052986;28;20050;-34
2022/04/01 01:28:04;;;;;;;;;;;;;;;-0.16;100.00;100385.72;5052897;28;20003;-35
2022/04/01 01:30:29;;;;;;;;;;;;;;;-0.13;100.00;100379.25;5053302;28;19924;-35
2022/04/01 01:32:55;;;;;;;;;;;;;;;-0.14;100.00;100389.06;5052618;28;20381;-35
2022/04/01 01:35:20;;;;;;;;;;;;;;;-0.16;100.00;100385.72;5052759;28;20003;-35
2022/04/01 01:37:45;;;;;;;;;;;;;;;-0.18;100.00;100386.91;5052830;28;19962;-35
2022/04/01 01:40:11;;;;;;;;;;;;;;;-0.18;100.00;100392.22;5052657;28;19920;-35
2022/04/01 01:42:36;;;;;;;;;;;;;;;-0.07;100.00;100389.19;5053116;28;19913;-35
2022/04/01 01:45:01;;;;;;;;;;;;;;;-0.08;100.00;100392.84;5052951;28;19913;-35
2022/04/01 01:47:27;;;;;;;;;;;;;;;-0.12;100.00;100388.88;5052663;28;20053;-35
2022/04/01 01:55:20;;;;;;;;;;;;;;;-0.13;100.00;100395.19;5052577;28;19962;-35
2022/04/01 01:57:45;;;;;;;;;;;;;;;-0.10;100.00;100393.03;5052574;28;19913;-35
2022/04/01 02:00:16;;;;;;;;;;;;;;;-0.11;100.00;100399.31;5052778;28;20238;-34
2022/04/01 02:02:42;;;;;;;;;;;;;;;-0.06;100.00;100396.97;5056578;28;19920;-34
2022/04/01 02:05:07;;;;;;;;;;;;;;;-0.14;100.00;100401.50;5057081;28;20349;-35
2022/04/01 02:07:33;;;;;;;;;;;;;;;-0.16;100.00;100411.47;5056851;28;19912;-35
2022/04/01 02:09:58;;;;;;;;;;;;;;;-0.21;100.00;100417.31;5056374;28;19962;-35
2022/04/01 02:12:23;;;;;;;;;;;;;;;-0.20;100.00;100410.16;5055846;28;20330;-35
2022/04/01 02:14:48;;;;;;;;;;;;;;;-0.19;100.00;100406.53;5056086;28;20016;-35
2022/04/01 02:17:14;;;;;;;;;;;;;;;-0.19;100.00;100411.84;5056144;28;19912;-35
2022/04/01 02:19:39;;;;;;;;;;;;;;;-0.16;100.00;100411.47;5056425;28;19995;-35
2022/04/01 02:22:05;;;;;;;;;;;;;;;-0.14;100.00;100415.63;5056085;28;19958;-35
2022/04/01 02:24:31;;;;;;;;;;;;;;;-0.11;100.00;100417.94;5056756;28;20395;-35
2022/04/01 02:26:56;;;;;;;;;;;;;;;-0.14;100.00;100425.44;5056452;28;19913;-35
2022/04/01 02:29:22;;;;;;;;;;;;;;;-0.05;100.00;100429.69;5055885;28;19920;-35
2022/04/01 02:31:50;;;;;;;;;;;;;;;-0.09;100.00;100428.41;5056144;28;19952;-35
2022/04/01 02:34:15;;;;;;;;;;;;;;;-0.10;100.00;100437.34;5056279;28;20257;-35
2022/04/01 02:36:40;;;;;;;;;;;;;;;-0.22;100.00;100431.59;5055896;28;19966;-34
2022/04/01 02:39:06;;;;;;;;;;;;;;;-0.20;100.00;100428.75;5055759;28;20303;-35
2022/04/01 02:41:31;;;;;;;;;;;;;;;-0.19;100.00;100427.78;5056125;28;20359;-35
2022/04/01 02:44:08;;;;;;;;;;;;;;;-0.22;100.00;100436.91;5055637;28;19913;-35
2022/04/01 02:46:34;;;;;;;;;;;;;;;-0.23;100.00;100445.06;5055845;28;19913;-35
2022/04/01 02:49:00;;;;;;;;;;;;;;;-0.21;100.00;100429.75;5055768;28;19913;-35
2022/04/01 02:51:25;;;;;;;;;;;;;;;-0.27;100.00;100445.38;5055622;28;19920;-35
2022/04/01 02:53:50;;;;;;;;;;;;;;;-0.28;100.00;100440.25;5055553;28;19913;-35
2022/04/01 02:56:15;;;;;;;;;;;;;;;-0.23;100.00;100442.41;5055382;28;19912;-35
2022/04/01 02:58:40;;;;;;;;;;;;;;;-0.29;100.00;100446.56;5055374;28;19913;-35
2022/04/01 03:01:06;;;;;;;;;;;;;;;-0.28;100.00;100451.72;5055447;28;19916;-35
2022/04/01 03:03:31;;;;;;;;;;;;;;;-0.20;100.00;100450.84;5055284;28;19942;-35
2022/04/01 03:05:57;;;;;;;;;;;;;;;-0.21;100.00;100467.78;5055215;28;19920;-35
2022/04/01 03:08:22;;;;;;;;;;;;;;;-0.29;100.00;100452.72;5054862;28;20244;-35
2022/04/01 03:10:47;;;;;;;;;;;;;;;-0.27;100.00;100456.03;5055606;28;19957;-35
2022/04/01 03:13:12;;;;;;;;;;;;;;;-0.21;100.00;100469.63;5054110;28;19913;-34
2022/04/01 03:15:38;;;;;;;;;;;;;;;-0.18;100.00;100461.31;5055205;28;19920;-34
2022/04/01 03:18:04;;;;;;;;;;;;;;;-0.21;100.00;100462.47;5055269;28;20317;-34
2022/04/01 03:20:30;;;;;;;;;;;;;;;-0.17;100.00;100465.63;5055041;28;19913;-34
2022/04/01 03:22:57;;;;;;;;;;;;;;;-0.23;100.00;100468.97;5054995;28;20046;-34
2022/04/01 03:25:23;;;;;;;;;;;;;;;-0.30;100.00;100469.63;5055664;28;19921;-34
2022/04/01 03:27:49;;;;;;;;;;;;;;;-0.28;100.00;100477.47;5054568;28;20384;-35
2022/04/01 03:30:15;;;;;;;;;;;;;;;-0.31;100.00;100483.91;5055364;28;19913;-35
2022/04/01 03:32:41;;;;;;;;;;;;;;;-0.30;100.00;100490.06;5054816;28;19912;-34
2022/04/01 03:35:08;;;;;;;;;;;;;;;-0.33;100.00;100485.94;5054916;28;19919;-34
2022/04/01 03:37:34;;;;;;;;;;;;;;;-0.40;100.00;100495.56;5055166;28;19912;-34
2022/04/01 03:40:00;;;;;;;;;;;;;;;-0.39;100.00;100486.63;5054889;28;20372;-34
2022/04/01 03:42:30;;;;;;;;;;;;;;;-0.33;100.00;100491.25;5054602;28;20274;-34
2022/04/01 03:44:55;;;;;;;;;;;;;;;-0.36;100.00;100494.22;5054985;28;19916;-34
2022/04/01 03:47:23;;;;;;;;;;;;;;;-0.38;100.00;100501.56;5054438;28;20391;-35
2022/04/01 03:49:54;;;;;;;;;;;;;;;-0.43;100.00;100503.06;5054212;28;20361;-34
2022/04/01 03:52:19;;;;;;;;;;;;;;;-0.42;100.00;100507.38;5054404;28;19917;-34
2022/04/01 03:54:46;;;;;;;;;;;;;;;-0.39;100.00;100507.00;5054340;28;20280;-34
2022/04/01 03:57:14;;;;;;;;;;;;;;;-0.36;100.00;100514.66;5054237;28;19913;-34
2022/04/01 03:59:44;;;;;;;;;;;;;;;-0.45;100.00;100508.53;5054201;28;19916;-34
2022/04/01 04:02:14;;;;;;;;;;;;;;;-0.50;100.00;100515.34;5054648;28;20276;-34
2022/04/01 04:04:43;;;;;;;;;;;;;;;-0.53;100.00;100519.16;5054270;28;19917;-34
2022/04/01 04:07:09;;;;;;;;;;;;;;;-0.49;100.00;100523.13;5054342;28;20408;-34
2022/04/01 04:09:38;;;;;;;;;;;;;;;-0.55;100.00;100529.94;5054060;28;19912;-34
2022/04/01 04:12:05;;;;;;;;;;;;;;;-0.46;100.00;100530.78;5054849;28;19966;-34
2022/04/01 04:14:31;;;;;;;;;;;;;;;-0.46;100.00;100530.78;5053949;28;20015;-34
2022/04/01 04:16:56;;;;;;;;;;;;;;;-0.47;100.00;100547.72;5053674;28;20003;-34
2022/04/01 04:19:31;;;;;;;;;;;;;;;-0.48;100.00;100546.06;5053646;28;20352;-34
2022/04/01 04:22:05;;;;;;;;;;;;;;;-0.46;100.00;100546.72;5053920;28;19920;-34
2022/04/01 04:24:32;;;;;;;;;;;;;;;-0.46;100.00;100538.75;5054089;28;19919;-34
2022/04/01 04:27:01;;;;;;;;;;;;;;;-0.48;100.00;100551.38;5054425;28;19917;-34
2022/04/01 04:29:27;;;;;;;;;;;;;;;-0.48;100.00;100562.00;5054208;28;19936;-34
2022/04/01 04:31:58;;;;;;;;;;;;;;;-0.52;100.00;100558.84;5054133;28;19940;-34
2022/04/01 04:34:26;;;;;;;;;;;;;;;-0.56;100.00;100554.84;5054065;28;20323;-35
2022/04/01 04:36:54;;;;;;;;;;;;;;;-0.50;100.00;100569.28;5054032;28;20290;-35
2022/04/01 04:39:39;;;;;;;;;;;;;;;-0.46;100.00;100565.31;5053439;28;19916;-35
2022/04/01 04:42:05;;;;;;;;;;;;;;;-0.43;100.00;100570.31;5053001;28;19958;-35
2022/04/01 04:44:31;;;;;;;;;;;;;;;-0.45;100.00;100561.66;5053669;28;20007;-34
2022/04/01 04:46:56;;;;;;;;;;;;;;;-0.43;100.00;100570.31;5053874;28;19912;-35
2022/04/01 04:49:22;;;;;;;;;;;;;;;-0.40;100.00;100583.22;5053264;28;19912;-35
2022/04/01 04:51:48;;;;;;;;;;;;;;;-0.38;100.00;100581.25;5053631;28;19912;-35
2022/04/01 04:54:14;;;;;;;;;;;;;;;-0.38;100.00;100586.56;5053193;28;19968;-35
2022/04/01 04:56:39;;;;;;;;;;;;;;;-0.44;100.00;100589.91;5052901;28;19916;-34
2022/04/01 04:59:05;;;;;;;;;;;;;;;-0.37;100.00;100588.22;5053149;28;19960;-35
2022/04/01 05:01:39;;;;;;;;;;;;;;;-0.40;100.00;100587.72;5053509;28;19955;-35
2022/04/01 05:04:17;;;;;;;;;;;;;;;-0.41;100.00;100608.16;5053458;28;19988;-35
2022/04/01 05:06:58;;;;;;;;;;;;;;;-0.38;100.00;100607.00;5053247;28;19913;-35
2022/04/01 05:09:25;;;;;;;;;;;;;;;-0.37;100.00;100616.63;5053153;28;19916;-34
2022/04/01 05:12:06;;;;;;;;;;;;;;;-0.43;100.00;100623.44;5053691;28;20329;-34
2022/04/01 05:15:04;;;;;;;;;;;;;;;-0.40;100.00;100631.06;5052007;28;19966;-34
2022/04/01 05:17:36;;;;;;;;;;;;;;;-0.43;100.00;100628.75;5050644;28;19924;-34
2022/04/01 05:20:04;;;;;;;;;;;;;;;-0.40;100.00;100633.72;5051179;28;19913;-34
2022/04/01 05:22:36;;;;;;;;;;;;;;;-0.38;100.00;100634.41;5050803;28;19924;-34
2022/04/01 05:25:03;;;;;;;;;;;;;;;-0.39;100.00;100634.53;5050829;28;19991;-34
2022/04/01 05:27:30;;;;;;;;;;;;;;;-0.38;100.00;100637.06;5050729;28;20250;-34
2022/04/01 05:30:16;;;;;;;;;;;;;;;-0.39;100.00;100651.34;5050264;28;19951;-34
2022/04/01 05:32:57;;;;;;;;;;;;;;;-0.36;100.00;100656.31;5033836;28;19920;-34
2022/04/01 05:35:24;;;;;;;;;;;;;;;-0.42;100.00;100659.63;5050412;28;19912;-35
2022/04/01 05:37:50;;;;;;;;;;;;;;;-0.42;100.00;100662.28;5054012;28;20380;-35
2022/04/01 05:40:16;;;;;;;;;;;;;;;-0.43;100.00;100668.59;5054932;28;20003;-35
2022/04/01 05:42:44;;;;;;;;;;;;;;;-0.43;100.00;100667.78;5054467;28;19913;-33
2022/04/01 05:45:10;;;;;;;;;;;;;;;-0.46;100.00;100671.56;5054871;28;20316;-34
2022/04/01 05:47:35;;;;;;;;;;;;;;;-0.37;100.00;100675.91;5054497;28;19970;-34
2022/04/01 05:50:01;;;;;;;;;;;;;;;-0.43;100.00;100681.06;5054998;28;20036;-34
2022/04/01 05:52:28;;;;;;;;;;;;;;;-0.41;100.00;100682.53;5054733;28;20345;-34
2022/04/01 05:54:54;;;;;;;;;;;;;;;-0.46;100.00;100694.66;5057034;28;19957;-35
2022/04/01 05:57:20;;;;;;;;;;;;;;;-0.42;100.00;100688.84;5056356;28;19919;-34
2022/04/01 05:59:46;;;;;;;;;;;;;;;-0.40;100.00;100694.00;5056684;28;19959;-35
2022/04/01 06:02:17;;;;;;;;;;;;;;;-0.39;100.00;100696.50;5056461;28;19917;-35
2022/04/01 06:04:48;;;;;;;;;;;;;;;-0.41;100.00;100701.13;5056468;28;19958;-35
2022/04/01 06:07:27;;;;;;;;;;;;;;;-0.44;100.00;100712.09;5056702;28;19948;-35
2022/04/01 06:10:00;;;;;;;;;;;;;;;-0.48;100.00;100709.94;5057305;28;20008;-35
2022/04/01 06:12:28;;;;;;;;;;;;;;;-0.51;100.00;100713.72;5056538;28;19913;-35
2022/04/01 06:15:03;;;;;;;;;;;;;;;-0.45;100.00;100720.22;5056584;28;19917;-34
2022/04/01 06:17:41;;;;;;;;;;;;;;;-0.53;100.00;100737.81;5056896;28;19921;-35
2022/04/01 06:20:07;;;;;;;;;;;;;;;-0.42;100.00;100735.84;5056652;28;19962;-35
2022/04/01 06:22:36;;;;;;;;;;;;;;;-0.52;100.00;100747.44;5055752;28;19913;-35
2022/04/01 06:25:01;;;;;;;;;;;;;;;-0.52;100.00;100741.28;5056828;28;19912;-35
2022/04/01 06:27:44;;;;;;;;;;;;;;;-0.49;100.00;100754.22;5056492;28;19958;-35
2022/04/01 06:30:11;;;;;;;;;;;;;;;-0.53;100.00;100748.44;5055924;28;19912;-35
2022/04/01 06:32:55;;;;;;;;;;;;;;;-0.52;100.00;100757.22;5056110;28;19989;-35
2022/04/01 06:35:30;;;;;;;;;;;;;;;-0.49;100.00;100769.34;5056396;28;20269;-34
2022/04/01 06:37:58;;;;;;;;;;;;;;;-0.52;100.00;100770.50;5055719;28;19913;-34
2022/04/01 06:40:26;;;;;;;;;;;;;;;-0.47;100.00;100781.50;5055570;28;19913;-35
2022/04/01 06:42:53;;;;;;;;;;;;;;;-0.48;100.00;100774.53;5055393;28;20034;-35
2022/04/01 06:45:19;;;;;;;;;;;;;;;-0.40;100.00;100779.00;5055616;28;19963;-35
2022/04/01 06:47:45;;;;;;;;;;;;;;;-0.41;100.00;100790.63;5055613;28;19967;-35
2022/04/01 06:50:12;;;;;;;;;;;;;;;-0.39;100.00;100781.53;5055920;28;19919;-35
2022/04/01 06:52:38;;;;;;;;;;;;;;;-0.40;100.00;100793.13;5055723;28;20281;-35
2022/04/01 06:55:05;;;;;;;;;;;;;;;-0.42;100.00;100795.13;5055665;28;19929;-35
2022/04/01 06:57:30;;;;;;;;;;;;;;;-0.37;100.00;100802.59;5056178;28;19913;-35
2022/04/01 06:59:56;;;;;;;;;;;;;;;-0.35;100.00;100796.13;5055410;28;19913;-34
2022/04/01 07:02:22;;;;;;;;;;;;;;;-0.33;100.00;100818.06;5054988;28;20381;-34
2022/04/01 07:04:47;;;;;;;;;;;;;;;-0.35;100.00;100809.41;5055076;28;19919;-34
2022/04/01 07:07:12;;;;;;;;;;;;;;;-0.29;100.00;100805.31;5054840;28;20012;-34
2022/04/01 07:09:38;;;;;;;;;;;;;;;-0.26;100.00;100815.59;5055455;28;20531;-34
2022/04/01 07:12:03;;;;;;;;;;;;;;;-0.28;100.00;100813.09;5055084;28;20005;-34
2022/04/01 07:14:31;;;;;;;;;;;;;;;-0.24;99.88;100813.63;5055126;28;19917;-34
2022/04/01 07:16:57;;;;;;;;;;;;;;;-0.28;100.00;100826.41;5054936;28;19923;-34
2022/04/01 07:19:22;;;;;;;;;;;;;;;-0.27;100.00;100825.41;5054851;28;19917;-34
2022/04/01 07:21:47;;;;;;;;;;;;;;;-0.31;99.80;100816.06;5055066;28;19958;-34
2022/04/01 07:24:12;;;;;;;;;;;;;;;-0.29;100.00;100819.41;5055137;28;19912;-34
2022/04/01 07:26:38;;;;;;;;;;;;;;;-0.22;100.00;100824.91;5054917;28;20373;-34
2022/04/01 07:29:03;;;;;;;;;;;;;;;-0.19;100.00;100823.78;5054817;28;19912;-34
2022/04/01 07:34:13;;;;;;;;;;;;;;;-0.15;100.00;100838.38;5055001;28;20462;-34
2022/04/01 07:36:38;;;;;;;;;;;;;;;-0.12;100.00;100851.34;5054573;28;20032;-34
2022/04/01 07:39:03;;;;;;;;;;;;;;;-0.08;99.71;100844.72;5054753;28;20011;-34
2022/04/01 07:41:34;;;;;;;;;;;;;;;-0.11;99.66;100850.34;5055088;28;19913;-34
2022/04/01 07:44:00;;;;;;;;;;;;;;;-0.19;98.85;100856.50;5054753;28;20420;-34
2022/04/01 07:46:25;;;;;;;;;;;;;;;-0.17;99.72;100856.31;5054219;28;19952;-34
2022/04/01 07:48:51;;;;;;;;;;;;;;;-0.13;99.69;100857.69;5054662;28;20030;-35
2022/04/01 07:51:16;;;;;;;;;;;;;;;-0.12;99.34;100859.34;5054174;28;19959;-34
2022/04/01 07:53:41;;;;;;;;;;;;;;;-0.17;99.12;100873.09;5054107;28;19928;-34
2022/04/01 07:56:06;;;;;;;;;;;;;;;-0.14;98.85;100869.31;5054557;28;19912;-34
2022/04/01 07:58:32;;;;;;;;;;;;;;;-0.12;100.00;100864.66;5054599;28;20004;-35
2022/04/01 08:00:57;;;;;;;;;;;;;;;-0.08;98.71;100868.66;5054487;28;19924;-34
2022/04/01 08:03:22;;;;;;;;;;;;;;;-0.04;99.39;100873.50;5054679;28;19917;-35
2022/04/01 08:05:47;;;;;;;;;;;;;;;-0.05;98.72;100873.63;5054890;28;19956;-35
2022/04/01 08:08:13;;;;;;;;;;;;;;;-0.05;98.95;100876.28;5053800;28;19916;-35
2022/04/01 08:10:38;;;;;;;;;;;;;;;-0.08;98.84;100873.97;5053678;28;19917;-34
2022/04/01 08:13:04;;;;;;;;;;;;;;;-0.12;97.90;100888.56;5053607;28;19913;-34
2022/04/01 08:15:30;;;;;;;;;;;;;;;-0.08;99.15;100882.78;5054002;28;20337;-34
2022/04/01 08:17:55;;;;;;;;;;;;;;;-0.03;99.38;100892.94;5054144;28;19924;-34
2022/04/01 08:20:21;;;;;;;;;;;;;;;0.01;98.47;100898.75;5054056;28;19917;-34
2022/04/01 08:22:46;;;;;;;;;;;;;;;0.02;97.85;100897.75;5053729;28;19912;-34
2022/04/01 08:25:12;;;;;;;;;;;;;;;0.02;98.55;100905.75;5054409;28;19996;-34
2022/04/01 08:27:37;;;;;;;;;;;;;;;0.02;98.34;100913.72;5053863;28;20349;-34
2022/04/01 08:30:02;;;;;;;;;;;;;;;-0.01;97.09;100914.84;5053938;28;19913;-34
2022/04/01 08:32:29;;;;;;;;;;;;;;;0.07;97.09;100922.03;5053649;28;20444;-34
2022/04/01 08:34:54;;;;;;;;;;;;;;;0.04;96.51;100923.19;5054422;28;20253;-34
2022/04/01 08:37:20;;;;;;;;;;;;;;;0.05;95.70;100926.66;5053460;28;19912;-34
2022/04/01 08:39:47;;;;;;;;;;;;;;;0.08;94.99;100934.34;5053672;28;20348;-34
2022/04/01 08:42:12;;;;;;;;;;;;;;;0.19;94.84;100926.88;5053998;28;20015;-35
2022/04/01 08:44:41;;;;;;;;;;;;;;;0.06;93.94;100942.50;5053589;28;19975;-35
2022/04/01 08:47:07;;;;;;;;;;;;;;;0.16;95.39;100937.88;5053508;28;19913;-35
2022/04/01 08:49:32;;;;;;;;;;;;;;;0.27;96.19;100946.53;5053562;28;19952;-35
2022/04/01 08:51:58;;;;;;;;;;;;;;;0.29;96.28;100952.53;5053154;28;20385;-35
2022/04/01 08:54:23;;;;;;;;;;;;;;;0.22;96.07;100950.50;5053025;28;19920;-34
2022/04/01 08:56:48;;;;;;;;;;;;;;;0.29;96.04;100963.16;5053246;28;19959;-34
2022/04/01 08:59:14;;;;;;;;;;;;;;;0.33;95.72;100967.16;5053055;28;19912;-34
2022/04/01 09:01:40;;;;;;;;;;;;;;;0.37;96.13;100965.88;5053337;28;19920;-34
2022/04/01 09:04:19;;;;;;;;;;;;;;;0.52;96.65;100965.06;5053230;28;19913;-34
2022/04/01 09:06:45;;;;;;;;;;;;;;;0.62;96.43;100975.56;5052941;28;20012;-34
2022/04/01 09:09:21;;;;;;;;;;;;;;;0.57;95.27;100979.72;5053591;28;19913;-34
2022/04/01 09:12:02;;;;;;;;;;;;;;;0.69;95.68;100975.78;5053063;28;19918;-34
2022/04/01 09:14:27;;;;;;;;;;;;;;;0.66;94.97;100976.09;5052831;28;19917;-34
2022/04/01 09:16:53;;;;;;;;;;;;;;;0.69;93.75;100971.28;5053392;28;19917;-34
2022/04/01 09:19:27;;;;;;;;;;;;;;;0.67;94.14;100977.75;5053461;28;20074;-34
2022/04/01 09:21:52;;;;;;;;;;;;;;;0.70;95.31;100986.25;5053368;28;20005;-34
2022/04/01 09:24:18;;;;;;;;;;;;;;;0.61;94.45;100983.72;5053237;28;20035;-34
2022/04/01 09:26:43;;;;;;;;;;;;;;;0.72;95.08;100986.06;5052924;28;19913;-34
2022/04/01 09:29:09;;;;;;;;;;;;;;;0.88;95.06;100990.59;5053189;28;19996;-34
2022/04/01 09:31:36;;;;;;;;;;;;;;;0.80;93.20;100993.25;5053597;28;19941;-34
2022/04/01 09:34:06;;;;;;;;;;;;;;;0.67;92.26;100994.53;5053360;28;19913;-35
2022/04/01 09:36:38;;;;;;;;;;;;;;;0.76;93.27;100993.56;5052498;28;20059;-35
2022/04/01 09:39:06;;;;;;;;;;;;;;;0.84;94.10;100999.91;5053344;28;19912;-35
2022/04/01 09:41:58;;;;;;;;;;;;;;;0.71;93.13;100990.56;5052538;28;19939;-35
2022/04/01 09:44:25;;;;;;;;;;;;;;;0.80;94.11;101003.91;5052863;28;19919;-35
2022/04/01 09:46:56;;;;;;;;;;;;;;;0.84;94.32;101000.75;5053427;28;19970;-34
2022/04/01 09:49:32;;;;;;;;;;;;;;;0.83;93.68;101006.22;5052822;28;19972;-35
2022/04/01 09:51:57;;;;;;;;;;;;;;;0.77;93.98;101011.19;5053019;28;19917;-35
2022/04/01 09:54:23;;;;;;;;;;;;;;;0.86;93.52;101008.56;5051106;28;19959;-35
2022/04/01 09:56:54;;;;;;;;;;;;;;;0.77;93.67;101008.53;5052479;28;19959;-35
2022/04/01 09:59:20;;;;;;;;;;;;;;;0.86;94.43;101009.41;5053005;28;20284;-35
2022/04/01 10:01:45;;;;;;;;;;;;;;;0.91;94.07;101012.41;5052769;28;19919;-35
2022/04/01 10:04:12;;;;;;;;;;;;;;;0.88;93.88;101007.41;5052691;28;19912;-35
2022/04/01 10:06:39;;;;;;;;;;;;;;;0.96;94.42;101010.06;5053473;28;19912;-35
2022/04/01 10:09:07;;;;;;;;;;;;;;;0.75;92.20;101002.56;5052467;28;19963;-35
2022/04/01 10:11:35;;;;;;;;;;;;;;;0.82;93.25;101004.56;5053259;28;19913;-35
2022/04/01 10:14:03;;;;;;;;;;;;;;;0.95;93.84;101005.75;5052675;28;19912;-34
2022/04/01 10:16:30;;;;;;;;;;;;;;;1.03;93.30;101005.78;5052861;28;20367;-34
2022/04/01 10:18:57;;;;;;;;;;;;;;;1.14;93.24;101003.78;5052581;28;20323;-35
2022/04/01 10:21:22;;;;;;;;;;;;;;;1.01;90.96;101005.09;5052937;28;19919;-35
2022/04/01 10:24:02;;;;;;;;;;;;;;;1.09;90.87;101009.59;5055709;28;20007;-35
2022/04/01 10:26:32;;;;;;;;;;;;;;;1.15;91.16;101005.44;5055742;28;19919;-35
2022/04/01 10:28:58;;;;;;;;;;;;;;;1.26;90.95;101002.44;5056036;28;19916;-35
2022/04/01 10:31:25;;;;;;;;;;;;;;;1.28;91.07;101009.28;5056246;28;19913;-35
2022/04/01 10:33:51;;;;;;;;;;;;;;;1.28;90.56;101000.47;5055940;28;19966;-35
2022/04/01 10:36:22;;;;;;;;;;;;;;;1.26;89.32;101005.09;5056192;28;19913;-34
2022/04/01 10:38:48;;;;;;;;;;;;;;;1.18;89.15;101008.63;5056181;28;19913;-34
2022/04/01 10:41:15;;;;;;;;;;;;;;;1.18;90.00;101005.94;5055524;28;20369;-35
2022/04/01 10:43:44;;;;;;;;;;;;;;;1.15;89.65;101016.09;5056128;28;19928;-34
2022/04/01 10:46:14;;;;;;;;;;;;;;;1.11;89.84;101012.91;5055567;28;19919;-34
2022/04/01 10:51:59;;;;;;;;;;;;;;;1.12;88.91;101014.59;5056158;28;19936;-34
2022/04/01 10:54:25;;;;;;;;;;;;;;;1.25;90.04;101030.09;5055755;28;19912;-34
2022/04/01 10:56:53;;;;;;;;;;;;;;;1.24;89.90;101029.25;5055625;28;19913;-34
2022/04/01 10:59:19;;;;;;;;;;;;;;;1.32;90.50;101027.59;5055461;28;19924;-34
2022/04/01 11:01:54;;;;;;;;;;;;;;;1.38;90.47;101029.59;5056157;28;20246;-35
2022/04/01 11:04:19;;;;;;;;;;;;;;;1.30;89.20;101030.41;5055319;28;19924;-34
2022/04/01 11:06:50;;;;;;;;;;;;;;;1.25;89.69;101036.25;5055531;28;19912;-34
2022/04/01 11:09:34;;;;;;;;;;;;;;;1.27;88.50;101033.44;5055921;28;19919;-34
2022/04/01 11:12:14;;;;;;;;;;;;;;;1.31;88.39;101044.56;5056215;28;19973;-34
2022/04/01 11:15:08;;;;;;;;;;;;;;;1.23;87.77;101043.59;5054986;28;19912;-34
2022/04/01 11:17:33;;;;;;;;;;;;;;;1.25;87.12;101046.91;5056031;28;19925;-35
2022/04/01 11:20:04;;;;;;;;;;;;;;;1.26;87.56;101045.91;5055318;28;19995;-35
2022/04/01 11:22:42;;;;;;;;;;;;;;;1.26;88.64;101053.06;5055277;28;19963;-36
2022/04/01 11:25:08;;;;;;;;;;;;;;;1.27;88.04;101055.59;5055537;28;20269;-35
2022/04/01 11:27:34;;;;;;;;;;;;;;;1.27;88.29;101057.41;5056082;28;19913;-35
2022/04/01 11:30:13;;;;;;;;;;;;;;;1.26;88.79;101067.22;5055125;28;19920;-35
2022/04/01 11:32:39;;;;;;;;;;;;;;;1.28;88.44;101059.06;5055612;28;19917;-35
2022/04/01 11:35:06;;;;;;;;;;;;;;;1.25;88.21;101054.91;5054247;28;20310;-35
2022/04/01 11:37:35;;;;;;;;;;;;;;;1.28;89.25;101059.06;5055358;28;20256;-35
2022/04/01 11:40:11;;;;;;;;;;;;;;;1.29;89.94;101064.22;5055512;28;20273;-35
2022/04/01 11:42:50;;;;;;;;;;;;;;;1.35;89.52;101062.72;5054649;28;19913;-35
2022/04/01 11:45:15;;;;;;;;;;;;;;;1.36;88.93;101061.72;5054678;28;19913;-35
2022/04/01 11:47:40;;;;;;;;;;;;;;;1.35;88.73;101060.06;5054776;28;19923;-35
2022/04/01 11:50:10;;;;;;;;;;;;;;;1.37;89.28;101057.25;5054785;28;19913;-35
2022/04/01 11:52:39;;;;;;;;;;;;;;;1.27;88.46;101062.75;5054900;28;20012;-35
2022/04/01 11:55:15;;;;;;;;;;;;;;;1.31;87.84;101057.91;5054981;28;20353;-35
2022/04/01 11:57:40;;;;;;;;;;;;;;;1.34;88.30;101061.06;5052836;28;19935;-35
2022/04/01 12:00:09;;;;;;;;;;;;;;;1.40;88.23;101064.91;5054255;28;19913;-35
2022/04/01 12:02:35;;;;;;;;;;;;;;;1.40;87.42;101063.06;5054947;28;19912;-35
2022/04/01 12:05:00;;;;;;;;;;;;;;;1.48;88.20;101067.56;5055204;28;19978;-35
2022/04/01 12:10:23;;;;;;;;;;;;;;;1.57;86.56;101065.75;5055010;28;19959;-35
2022/04/01 12:12:55;;;;;;;;;;;;;;;1.58;86.28;101070.06;5054059;28;20273;-35
2022/04/01 12:15:30;;;;;;;;;;;;;;;1.59;87.59;101061.91;5054886;28;19919;-35
2022/04/01 12:17:55;;;;;;;;;;;;;;;1.64;86.87;101062.25;5054776;28;19917;-36
2022/04/01 12:20:21;;;;;;;;;;;;;;;1.64;86.50;101064.91;5054322;28;20445;-35
2022/04/01 12:22:46;;;;;;;;;;;;;;;1.62;86.78;101069.59;5053855;28;19912;-35
2022/04/01 12:25:11;;;;;;;;;;;;;;;1.66;87.32;101076.25;5055036;28;19917;-35
2022/04/01 12:27:52;;;;;;;;;;;;;;;1.67;86.99;101090.41;5053717;28;19912;-35
2022/04/01 12:30:27;;;;;;;;;;;;;;;1.57;85.49;101084.41;5053987;28;19912;-35
2022/04/01 12:32:53;;;;;;;;;;;;;;;1.51;87.29;101089.41;5053926;28;19939;-35
2022/04/01 12:35:18;;;;;;;;;;;;;;;1.53;87.47;101092.72;5053590;28;19917;-35
2022/04/01 12:37:44;;;;;;;;;;;;;;;1.50;87.62;101084.22;5053625;28;20379;-35
2022/04/01 12:40:10;;;;;;;;;;;;;;;1.50;88.34;101095.72;5054497;28;19966;-35
2022/04/01 12:42:38;;;;;;;;;;;;;;;1.51;88.16;101102.75;5054300;28;19912;-35
2022/04/01 12:45:05;;;;;;;;;;;;;;;1.47;88.09;101105.91;5053725;28;20007;-35
2022/04/01 12:47:32;;;;;;;;;;;;;;;1.46;87.90;101102.38;5052655;28;19935;-35
2022/04/01 12:49:58;;;;;;;;;;;;;;;1.46;87.36;101106.88;5053720;28;19952;-35
2022/04/01 12:52:27;;;;;;;;;;;;;;;1.55;87.88;101101.38;5054118;28;19967;-35